createdAt,value
2022-09-21T00:01:16.394Z,5.20
2022-09-21T00:03:44.843Z,5.20
2022-09-21T00:06:17.334Z,5.20
2022-09-21T00:08:45.951Z,5.20
2022-09-21T00:11:14.371Z,5.10
2022-09-21T00:13:41.867Z,5.10
2022-09-21T00:16:09.404Z,5.40
2022-09-21T00:18:36.899Z,5.40
2022-09-21T00:21:11.900Z,5.40
2022-09-21T00:23:38.904Z,5.40
2022-09-21T00:26:14.401Z,5.40
2022-09-21T00:28:41.609Z,5.20
2022-09-21T00:31:12.282Z,5.10
2022-09-21T00:33:40.405Z,5.10
2022-09-21T00:36:13.236Z,5.00
2022-09-21T00:38:40.474Z,4.90
2022-09-21T00:41:09.072Z,4.90
2022-09-21T00:43:37.819Z,4.90
2022-09-21T00:46:27.416Z,5.10
2022-09-21T00:48:54.467Z,5.10
2022-09-21T00:51:21.502Z,5.10
2022-09-21T00:53:51.783Z,5.10
2022-09-21T00:56:20.249Z,5.20
2022-09-21T00:58:50.678Z,5.20
2022-09-21T01:01:18.757Z,5.10
2022-09-21T01:03:51.310Z,5.10
2022-09-21T01:06:20.696Z,5.10
2022-09-21T01:08:54.675Z,5.20
2022-09-21T01:11:39.267Z,5.30
2022-09-21T01:14:26.927Z,5.30
2022-09-21T01:17:09.342Z,5.30
2022-09-21T01:19:54.635Z,5.30
2022-09-21T01:22:28.606Z,5.20
2022-09-21T01:25:24.217Z,5.20
2022-09-21T01:28:18.136Z,5.20
2022-09-21T01:30:49.107Z,5.30
2022-09-21T01:33:30.230Z,5.40
2022-09-21T01:36:03.091Z,5.40
2022-09-21T01:38:40.164Z,5.30
2022-09-21T01:41:12.034Z,5.30
2022-09-21T01:43:47.654Z,5.20
2022-09-21T01:46:20.873Z,5.20
2022-09-21T01:48:52.611Z,5.10
2022-09-21T01:51:21.933Z,5.10
2022-09-21T01:53:52.766Z,5.20
2022-09-21T01:56:30.849Z,5.20
2022-09-21T01:59:03.598Z,5.30
2022-09-21T02:01:36.209Z,5.30
2022-09-21T02:04:08.881Z,5.30
2022-09-21T02:06:38.747Z,5.20
2022-09-21T02:09:05.619Z,5.30
2022-09-21T02:11:32.368Z,5.30
2022-09-21T02:13:59.452Z,5.40
2022-09-21T02:16:42.157Z,5.40
2022-09-21T02:19:14.069Z,5.40
2022-09-21T02:22:04.077Z,5.30
2022-09-21T02:24:33.894Z,5.30
2022-09-21T02:27:12.453Z,5.30
2022-09-21T02:30:18.913Z,5.20
2022-09-21T02:33:05.310Z,5.10
2022-09-21T02:35:43.330Z,5.10
2022-09-21T02:38:46.179Z,5.10
2022-09-21T02:41:16.911Z,5.00
2022-09-21T02:44:01.819Z,5.10
2022-09-21T02:46:31.557Z,5.10
2022-09-21T02:49:08.577Z,5.10
2022-09-21T02:51:41.595Z,5.30
2022-09-21T02:54:12.478Z,5.40
2022-09-21T02:56:41.188Z,5.40
2022-09-21T02:59:08.335Z,5.30
2022-09-21T03:01:35.751Z,5.30
2022-09-21T03:04:02.608Z,5.30
2022-09-21T03:06:29.407Z,5.30
2022-09-21T03:08:58.503Z,5.30
2022-09-21T03:11:25.910Z,5.30
2022-09-21T03:13:52.959Z,5.40
2022-09-21T03:16:19.994Z,5.40
2022-09-21T03:18:46.892Z,5.40
2022-09-21T03:21:13.646Z,5.50
2022-09-21T03:23:40.674Z,5.50
2022-09-21T03:26:08.522Z,5.40
2022-09-21T03:28:35.446Z,5.30
2022-09-21T03:31:02.261Z,5.30
2022-09-21T03:33:29.159Z,5.20
2022-09-21T03:35:55.853Z,5.00
2022-09-21T03:38:22.572Z,4.90
2022-09-21T03:40:49.764Z,4.80
2022-09-21T03:43:17.415Z,4.70
2022-09-21T03:45:44.427Z,4.60
2022-09-21T03:48:11.722Z,4.60
2022-09-21T03:50:38.758Z,4.50
2022-09-21T03:53:06.653Z,4.50
2022-09-21T03:55:33.775Z,4.80
2022-09-21T03:58:00.756Z,4.80
2022-09-21T04:00:27.928Z,4.90
2022-09-21T04:02:55.054Z,4.80
2022-09-21T04:05:22.314Z,4.80
2022-09-21T04:07:50.088Z,4.90
2022-09-21T04:10:19.619Z,4.90
2022-09-21T04:12:46.925Z,5.00
2022-09-21T04:15:21.570Z,5.00
2022-09-21T04:17:51.443Z,5.10
2022-09-21T04:20:18.847Z,5.10
2022-09-21T04:22:46.690Z,5.10
2022-09-21T04:25:14.623Z,5.20
2022-09-21T04:27:41.426Z,5.10
2022-09-21T04:30:10.798Z,5.00
2022-09-21T04:32:37.633Z,5.10
2022-09-21T04:35:04.815Z,5.00
2022-09-21T04:37:31.613Z,4.90
2022-09-21T04:39:58.566Z,4.90
2022-09-21T04:42:25.459Z,4.90
2022-09-21T04:44:52.225Z,4.90
2022-09-21T04:47:19.392Z,4.90
2022-09-21T04:49:46.205Z,5.00
2022-09-21T04:52:15.851Z,5.00
2022-09-21T04:54:46.380Z,5.00
2022-09-21T04:57:14.174Z,5.00
2022-09-21T04:59:40.999Z,5.00
2022-09-21T05:02:07.783Z,4.80
2022-09-21T05:04:34.539Z,4.90
2022-09-21T05:07:01.255Z,4.90
2022-09-21T05:09:46.803Z,4.90
2022-09-21T05:12:13.575Z,4.80
2022-09-21T05:14:41.012Z,4.80
2022-09-21T05:17:07.769Z,4.90
2022-09-21T05:19:34.495Z,5.00
2022-09-21T05:22:01.199Z,4.90
2022-09-21T05:24:28.000Z,5.00
2022-09-21T05:26:54.686Z,5.10
2022-09-21T05:29:21.782Z,4.90
2022-09-21T05:31:57.894Z,5.00
2022-09-21T05:34:45.211Z,5.00
2022-09-21T05:37:42.369Z,4.90
2022-09-21T05:40:11.868Z,4.80
2022-09-21T05:42:39.045Z,4.80
2022-09-21T05:45:06.755Z,4.90
2022-09-21T05:47:44.830Z,4.90
2022-09-21T05:50:46.739Z,5.00
2022-09-21T05:53:38.242Z,5.00
2022-09-21T05:56:28.267Z,5.10
2022-09-21T05:59:33.888Z,5.10
2022-09-21T06:02:12.745Z,5.10
2022-09-21T06:04:39.837Z,5.20
2022-09-21T06:07:06.527Z,5.20
2022-09-21T06:09:33.343Z,5.30
2022-09-21T06:12:00.063Z,5.30
2022-09-21T06:14:28.627Z,5.30
2022-09-21T06:16:55.504Z,5.30
2022-09-21T06:19:23.224Z,5.40
2022-09-21T06:21:51.387Z,5.30
2022-09-21T06:24:18.274Z,4.90
2022-09-21T06:26:45.064Z,4.80
2022-09-21T06:29:11.805Z,4.70
2022-09-21T06:31:38.507Z,4.60
2022-09-21T06:34:05.376Z,4.50
2022-09-21T06:36:32.194Z,4.40
2022-09-21T06:38:58.866Z,4.30
2022-09-21T06:41:25.559Z,4.40
2022-09-21T06:43:56.797Z,4.50
2022-09-21T06:46:24.140Z,4.60
2022-09-21T06:48:51.051Z,4.60
2022-09-21T06:51:17.835Z,4.70
2022-09-21T06:53:44.571Z,4.50
2022-09-21T06:56:11.306Z,4.60
2022-09-21T06:58:38.651Z,4.40
2022-09-21T07:01:10.608Z,4.50
2022-09-21T07:03:38.619Z,4.60
2022-09-21T07:06:06.135Z,4.70
2022-09-21T07:11:21.163Z,4.50
2022-09-21T07:13:47.948Z,4.60
2022-09-21T07:16:14.710Z,4.60
2022-09-21T07:18:44.015Z,4.70
2022-09-21T07:21:12.244Z,4.90
2022-09-21T07:23:39.035Z,5.10
2022-09-21T07:26:08.140Z,5.30
2022-09-21T07:28:35.847Z,5.10
2022-09-21T07:31:09.648Z,5.20
2022-09-21T07:33:37.059Z,5.40
2022-09-21T07:36:10.105Z,5.40
2022-09-21T07:38:39.750Z,5.40
2022-09-21T07:41:15.591Z,5.60
2022-09-21T07:43:42.464Z,5.80
2022-09-21T07:46:11.879Z,5.90
2022-09-21T07:48:39.334Z,6.10
2022-09-21T07:51:08.476Z,6.30
2022-09-21T07:53:36.714Z,6.60
2022-09-21T07:56:06.059Z,6.70
2022-09-21T07:58:51.559Z,6.60
2022-09-21T08:01:18.578Z,6.40
2022-09-21T08:03:45.379Z,6.40
2022-09-21T08:06:12.128Z,6.60
2022-09-21T08:08:39.412Z,6.80
2022-09-21T08:11:06.636Z,7.10
2022-09-21T08:13:33.366Z,7.30
2022-09-21T08:16:02.345Z,7.60
2022-09-21T08:18:29.821Z,7.80
2022-09-21T08:20:59.294Z,8.00
2022-09-21T08:23:29.049Z,8.10
2022-09-21T08:26:00.863Z,8.20
2022-09-21T08:28:31.305Z,8.00
2022-09-21T08:31:02.585Z,7.40
2022-09-21T08:33:30.035Z,7.40
2022-09-21T08:35:58.404Z,7.30
2022-09-21T08:38:26.464Z,7.20
2022-09-21T08:40:53.965Z,7.20
2022-09-21T08:43:40.423Z,7.30
2022-09-21T08:46:13.189Z,7.50
2022-09-21T08:48:49.146Z,7.40
2022-09-21T08:51:25.085Z,7.50
2022-09-21T08:53:55.376Z,7.60
2022-09-21T08:56:33.040Z,7.70
2022-09-21T08:59:15.389Z,7.80
2022-09-21T09:02:02.842Z,7.90
2022-09-21T09:04:51.575Z,8.10
2022-09-21T09:07:39.792Z,8.40
2022-09-21T09:10:38.690Z,8.30
2022-09-21T09:13:14.452Z,8.30
2022-09-21T09:16:02.143Z,8.40
2022-09-21T09:18:53.963Z,8.40
2022-09-21T09:21:31.082Z,8.40
2022-09-21T09:24:02.077Z,8.40
2022-09-21T09:26:50.053Z,8.50
2022-09-21T09:29:39.603Z,8.40
2022-09-21T09:32:15.171Z,8.60
2022-09-21T09:35:07.246Z,9.10
2022-09-21T09:37:40.252Z,9.50
2022-09-21T09:40:08.263Z,9.40
2022-09-21T09:42:53.432Z,9.50
2022-09-21T09:46:03.495Z,9.80
2022-09-21T09:48:41.039Z,9.90
2022-09-21T09:51:12.647Z,9.80
2022-09-21T09:53:40.391Z,9.80
2022-09-21T09:56:10.733Z,10.00
2022-09-21T09:58:54.428Z,10.00
2022-09-21T10:01:48.995Z,10.00
2022-09-21T10:04:18.157Z,9.70
2022-09-21T10:06:46.704Z,10.20
2022-09-21T10:09:25.021Z,10.30
2022-09-21T10:11:54.940Z,10.30
2022-09-21T10:14:25.210Z,10.60
2022-09-21T10:16:53.449Z,10.90
2022-09-21T10:19:26.325Z,10.90
2022-09-21T10:21:58.287Z,11.10
2022-09-21T10:24:35.535Z,11.10
2022-09-21T10:27:13.493Z,10.80
2022-09-21T10:29:48.437Z,10.80
2022-09-21T10:32:16.331Z,10.60
2022-09-21T10:35:05.138Z,10.80
2022-09-21T10:37:37.520Z,11.00
2022-09-21T10:40:22.014Z,11.20
2022-09-21T10:42:50.857Z,11.30
2022-09-21T10:45:18.904Z,11.60
2022-09-21T10:47:51.555Z,11.90
2022-09-21T10:50:29.341Z,12.10
2022-09-21T10:53:31.246Z,12.20
2022-09-21T10:56:15.887Z,12.30
2022-09-21T10:59:20.158Z,12.40
2022-09-21T11:01:52.437Z,12.60
2022-09-21T11:04:46.101Z,12.90
2022-09-21T11:07:39.710Z,13.30
2022-09-21T11:10:16.604Z,13.70
2022-09-21T11:13:08.917Z,13.90
2022-09-21T11:15:56.788Z,14.20
2022-09-21T11:18:59.345Z,14.40
2022-09-21T11:22:03.417Z,14.40
2022-09-21T11:24:52.270Z,14.60
2022-09-21T11:27:19.815Z,14.90
2022-09-21T11:29:52.884Z,15.20
2022-09-21T11:32:53.985Z,15.40
2022-09-21T11:35:38.778Z,15.60
2022-09-21T11:38:17.760Z,15.80
2022-09-21T11:41:03.752Z,16.10
2022-09-21T11:44:11.214Z,16.40
2022-09-21T11:47:07.072Z,16.10
2022-09-21T11:50:19.481Z,15.90
2022-09-21T11:53:06.906Z,15.40
2022-09-21T11:55:58.248Z,15.20
2022-09-21T11:58:44.610Z,14.80
2022-09-21T12:01:14.809Z,14.50
2022-09-21T12:04:19.118Z,14.30
2022-09-21T12:06:45.773Z,14.00
2022-09-21T12:10:07.512Z,13.90
2022-09-21T12:12:42.926Z,14.30
2022-09-21T12:15:14.536Z,15.50
2022-09-21T12:17:41.224Z,16.30
2022-09-21T12:20:16.711Z,16.90
2022-09-21T12:22:47.245Z,17.30
2022-09-21T12:25:23.595Z,17.30
2022-09-21T12:27:55.069Z,17.60
2022-09-21T12:30:23.988Z,17.90
2022-09-21T12:33:35.867Z,17.80
2022-09-21T12:36:05.809Z,17.20
2022-09-21T12:38:41.937Z,17.00
2022-09-21T12:41:52.526Z,16.60
2022-09-21T12:44:54.172Z,16.30
2022-09-21T12:47:29.781Z,16.00
2022-09-21T12:50:03.609Z,15.70
2022-09-21T12:52:33.144Z,15.50
2022-09-21T12:55:20.299Z,15.80
2022-09-21T12:58:14.458Z,16.30
2022-09-21T13:01:15.671Z,16.50
2022-09-21T13:03:56.432Z,16.70
2022-09-21T13:07:04.784Z,16.70
2022-09-21T13:09:32.351Z,16.70
2022-09-21T13:12:09.453Z,16.70
2022-09-21T13:14:41.744Z,17.10
2022-09-21T13:17:26.656Z,17.80
2022-09-21T13:20:06.621Z,18.80
2022-09-21T13:22:36.691Z,21.10
2022-09-21T13:25:24.661Z,22.60
2022-09-21T13:28:13.451Z,22.40
2022-09-21T13:31:00.603Z,22.90
2022-09-21T13:33:29.530Z,23.90
2022-09-21T13:36:02.348Z,24.20
2022-09-21T13:38:41.057Z,24.50
2022-09-21T13:41:35.463Z,24.00
2022-09-21T13:44:30.268Z,24.40
2022-09-21T13:46:57.988Z,24.30
2022-09-21T13:49:33.642Z,24.50
2022-09-21T13:52:12.266Z,22.80
2022-09-21T13:54:47.040Z,21.00
2022-09-21T13:57:34.931Z,19.60
2022-09-21T14:00:13.631Z,18.30
2022-09-21T14:02:43.532Z,16.90
2022-09-21T14:05:29.112Z,15.90
2022-09-21T14:08:00.194Z,15.60
2022-09-21T14:10:29.282Z,15.30
2022-09-21T14:12:56.296Z,15.00
2022-09-21T14:15:23.036Z,14.90
2022-09-21T14:18:20.175Z,14.80
2022-09-21T14:21:17.104Z,14.80
2022-09-21T14:24:05.973Z,14.70
2022-09-21T14:26:48.860Z,14.70
2022-09-21T14:29:39.461Z,14.70
2022-09-21T14:32:16.203Z,14.70
2022-09-21T14:34:50.552Z,14.70
2022-09-21T14:37:40.816Z,14.80
2022-09-21T14:40:19.528Z,14.90
2022-09-21T14:42:49.679Z,15.10
2022-09-21T14:45:24.964Z,15.30
2022-09-21T14:48:18.108Z,15.30
2022-09-21T14:51:08.236Z,15.30
2022-09-21T14:53:55.798Z,15.80
2022-09-21T14:56:30.902Z,16.60
2022-09-21T14:59:31.144Z,17.60
2022-09-21T15:02:10.111Z,18.20
2022-09-21T15:05:06.343Z,19.10
2022-09-21T15:08:10.011Z,20.10
2022-09-21T15:11:04.630Z,21.20
2022-09-21T15:13:53.474Z,21.40
2022-09-21T15:16:41.011Z,22.00
2022-09-21T15:19:24.374Z,22.70
2022-09-21T15:22:14.344Z,22.80
2022-09-21T15:24:50.561Z,22.50
2022-09-21T15:27:19.739Z,22.50
2022-09-21T15:29:49.245Z,22.20
2022-09-21T15:32:30.903Z,22.10
2022-09-21T15:35:02.840Z,22.10
2022-09-21T15:37:35.660Z,22.10
2022-09-21T15:40:04.899Z,22.10
2022-09-21T15:42:35.186Z,22.30
2022-09-21T15:45:14.231Z,22.30
2022-09-21T15:47:42.378Z,22.30
2022-09-21T15:50:14.117Z,22.20
2022-09-21T15:52:47.282Z,21.70
2022-09-21T15:55:21.671Z,21.30
2022-09-21T15:57:58.193Z,21.30
2022-09-21T16:00:34.248Z,21.40
2022-09-21T16:03:23.631Z,21.30
2022-09-21T16:05:55.985Z,20.90
2022-09-21T16:08:29.914Z,20.80
2022-09-21T16:11:19.845Z,20.40
2022-09-21T16:14:06.662Z,19.40
2022-09-21T16:16:33.622Z,18.20
2022-09-21T16:19:00.447Z,17.30
2022-09-21T16:21:32.599Z,16.80
2022-09-21T16:24:10.984Z,16.30
2022-09-21T16:26:38.916Z,15.90
2022-09-21T16:29:09.464Z,15.50
2022-09-21T16:31:37.319Z,15.10
2022-09-21T16:34:24.806Z,14.80
2022-09-21T16:36:53.901Z,14.60
2022-09-21T16:39:21.741Z,14.30
2022-09-21T16:42:00.005Z,14.10
2022-09-21T16:44:36.728Z,13.80
2022-09-21T16:47:04.331Z,13.60
2022-09-21T16:49:34.806Z,13.50
2022-09-21T16:52:05.228Z,13.30
2022-09-21T16:54:32.641Z,13.20
2022-09-21T16:57:01.394Z,13.00
2022-09-21T16:59:30.284Z,12.80
2022-09-21T17:01:58.445Z,12.60
2022-09-21T17:04:28.878Z,12.50
2022-09-21T17:06:56.514Z,12.30
2022-09-21T17:09:29.506Z,12.30
2022-09-21T17:12:00.126Z,12.20
2022-09-21T17:14:40.790Z,12.00
2022-09-21T17:17:20.218Z,11.80
2022-09-21T17:19:49.831Z,11.60
2022-09-21T17:22:18.092Z,11.60
2022-09-21T17:24:52.769Z,11.40
2022-09-21T17:27:22.548Z,11.40
2022-09-21T17:29:50.509Z,11.30
2022-09-21T17:32:22.557Z,10.90
2022-09-21T17:35:15.838Z,10.80
2022-09-21T17:37:42.822Z,10.70
2022-09-21T17:40:11.274Z,10.50
2022-09-21T17:42:46.500Z,10.50
2022-09-21T17:45:40.681Z,10.30
2022-09-21T17:48:17.447Z,10.20
2022-09-21T17:50:44.456Z,10.10
2022-09-21T17:53:30.516Z,10.10
2022-09-21T17:55:59.128Z,9.90
2022-09-21T17:58:48.875Z,9.80
2022-09-21T18:01:24.886Z,9.70
2022-09-21T18:03:52.062Z,9.60
2022-09-21T18:06:19.012Z,9.40
2022-09-21T18:08:46.178Z,9.30
2022-09-21T18:11:18.052Z,9.30
2022-09-21T18:14:00.231Z,9.30
2022-09-21T18:16:33.701Z,9.30
2022-09-21T18:19:00.355Z,9.30
2022-09-21T18:21:27.952Z,9.20
2022-09-21T18:24:22.075Z,9.10
2022-09-21T18:26:49.139Z,8.90
2022-09-21T18:29:42.555Z,8.90
2022-09-21T18:32:30.014Z,8.90
2022-09-21T18:35:08.649Z,8.90
2022-09-21T18:37:59.404Z,8.80
2022-09-21T18:40:26.158Z,8.80
2022-09-21T18:43:17.204Z,8.80
2022-09-21T18:45:48.058Z,8.60
2022-09-21T18:49:03.028Z,8.60
2022-09-21T18:51:47.780Z,8.40
2022-09-21T18:54:28.657Z,8.30
2022-09-21T18:56:56.038Z,8.20
2022-09-21T18:59:23.309Z,8.20
2022-09-21T19:01:50.831Z,8.10
2022-09-21T19:04:18.643Z,8.10
2022-09-21T19:06:57.357Z,8.20
2022-09-21T19:09:54.111Z,8.20
2022-09-21T19:12:55.240Z,8.10
2022-09-21T19:15:59.682Z,8.00
2022-09-21T19:18:45.012Z,7.80
2022-09-21T19:21:39.468Z,7.80
2022-09-21T19:24:30.466Z,7.70
2022-09-21T19:27:22.316Z,7.70
2022-09-21T19:30:14.398Z,7.60
2022-09-21T19:32:52.955Z,7.60
2022-09-21T19:35:21.467Z,7.60
2022-09-21T19:37:50.228Z,7.60
2022-09-21T19:40:19.469Z,7.60
2022-09-21T19:43:02.581Z,7.50
2022-09-21T19:45:55.866Z,7.50
2022-09-21T19:48:27.459Z,7.40
2022-09-21T19:50:57.148Z,7.40
2022-09-21T19:53:43.163Z,7.40
2022-09-21T19:56:32.336Z,7.30
2022-09-21T19:59:19.010Z,7.20
2022-09-21T20:02:01.722Z,7.10
2022-09-21T20:04:39.238Z,6.90
2022-09-21T20:07:18.423Z,6.90
2022-09-21T20:10:00.208Z,6.90
2022-09-21T20:12:53.510Z,7.00
2022-09-21T20:15:41.715Z,7.00
2022-09-21T20:18:27.140Z,6.90
2022-09-21T20:20:54.721Z,6.90
2022-09-21T20:23:21.629Z,6.80
2022-09-21T20:26:00.712Z,6.80
2022-09-21T20:28:29.502Z,6.80
2022-09-21T20:30:56.237Z,6.80
2022-09-21T20:33:24.181Z,6.70
2022-09-21T20:35:55.754Z,6.60
2022-09-21T20:38:23.114Z,6.60
2022-09-21T20:40:49.923Z,6.60
2022-09-21T20:43:16.679Z,6.60
2022-09-21T20:45:47.658Z,6.50
2022-09-21T20:48:14.675Z,6.50
2022-09-21T20:50:49.136Z,6.30
2022-09-21T20:53:16.838Z,6.30
2022-09-21T20:55:52.352Z,6.50
2022-09-21T20:58:19.070Z,6.50
2022-09-21T21:00:46.079Z,6.40
2022-09-21T21:03:12.838Z,6.30
2022-09-21T21:05:39.770Z,6.20
2022-09-21T21:08:09.012Z,6.10
2022-09-21T21:10:36.774Z,6.20
2022-09-21T21:13:04.858Z,6.10
2022-09-21T21:15:32.036Z,6.10
2022-09-21T21:17:58.781Z,6.10
2022-09-21T21:20:26.072Z,6.10
2022-09-21T21:22:53.667Z,6.00
2022-09-21T21:25:20.566Z,6.00
2022-09-21T21:27:47.296Z,5.90
2022-09-21T21:30:14.271Z,5.90
2022-09-21T21:32:42.690Z,5.90
2022-09-21T21:35:09.541Z,5.90
2022-09-21T21:37:36.343Z,5.80
2022-09-21T21:40:03.521Z,5.80
2022-09-21T21:42:30.982Z,5.80
2022-09-21T21:44:57.710Z,5.70
2022-09-21T21:47:41.113Z,5.70
2022-09-21T21:50:09.682Z,5.70
2022-09-21T21:52:36.881Z,5.60
2022-09-21T21:55:04.625Z,5.60
2022-09-21T21:57:31.377Z,5.60
2022-09-21T21:59:58.123Z,5.50
2022-09-21T22:02:25.355Z,5.50
2022-09-21T22:04:52.648Z,5.60
2022-09-21T22:07:19.394Z,5.60
2022-09-21T22:09:46.073Z,5.50
2022-09-21T22:12:12.780Z,5.30
2022-09-21T22:14:39.700Z,5.20
2022-09-21T22:17:06.429Z,5.20
2022-09-21T22:19:33.186Z,5.10
2022-09-21T22:21:59.978Z,5.10
2022-09-21T22:24:26.681Z,5.10
2022-09-21T22:26:53.391Z,5.10
2022-09-21T22:29:20.163Z,5.10
2022-09-21T22:31:48.615Z,5.10
2022-09-21T22:34:16.046Z,5.00
2022-09-21T22:36:43.840Z,5.10
2022-09-21T22:39:11.353Z,5.10
2022-09-21T22:41:40.427Z,5.10
2022-09-21T22:44:07.777Z,5.10
2022-09-21T22:46:35.208Z,5.10
2022-09-21T22:49:02.203Z,5.00
2022-09-21T22:51:29.868Z,5.00
2022-09-21T22:53:57.634Z,5.00
2022-09-21T22:56:31.919Z,5.00
2022-09-21T22:59:00.456Z,5.00
2022-09-21T23:01:38.497Z,5.10
2022-09-21T23:04:10.858Z,5.20
2022-09-21T23:06:40.163Z,5.20
2022-09-21T23:09:09.154Z,5.00
2022-09-21T23:11:39.261Z,5.00
2022-09-21T23:14:06.169Z,4.90
2022-09-21T23:16:32.993Z,4.90
2022-09-21T23:18:59.954Z,4.90
2022-09-21T23:21:29.504Z,4.90
2022-09-21T23:23:59.779Z,4.80
2022-09-21T23:26:28.314Z,4.80
2022-09-21T23:28:57.237Z,4.80
2022-09-21T23:31:26.689Z,4.70
2022-09-21T23:33:55.304Z,4.60
2022-09-21T23:36:28.874Z,4.60
2022-09-21T23:38:55.667Z,4.50
2022-09-21T23:41:26.933Z,4.50
2022-09-21T23:43:54.710Z,4.40
2022-09-21T23:46:24.679Z,4.50
2022-09-21T23:48:51.780Z,4.50
2022-09-21T23:51:19.198Z,4.50
2022-09-21T23:53:46.733Z,4.60
2022-09-21T23:56:18.068Z,4.50
2022-09-21T23:58:45.288Z,4.60
